Time;durP1;ratioP1;P1;durP2;ratioP2;P2;SDS_P1;SDS_P2;PMS_P1;PMS_P2;Temp;Humidity;BMP_temperature;BMP_pressure;BME280_temperature;BME280_humidity;BME280_pressure;Samples;Min_cycle;Max_cycle;Signal;HPM_P1;HPM_P2
2022/05/06 03:01:15;;;;;;;2.00;1.90;;;22.40;49.40;;;;;;5531841;23;45932;-66
2022/05/06 03:03:41;;;;;;;2.22;2.03;;;22.30;50.00;;;;;;4908811;28;45561;-66
2022/05/06 03:06:06;;;;;;;2.13;1.92;;;22.40;49.40;;;;;;4898348;28;45182;-66
2022/05/06 03:08:32;;;;;;;2.58;2.20;;;22.40;49.40;;;;;;4905029;28;45691;-66
2022/05/06 03:10:59;;;;;;;2.30;2.10;;;22.40;49.40;;;;;;4896016;28;45360;-66
2022/05/06 03:13:24;;;;;;;2.53;2.30;;;22.40;49.40;;;;;;4900256;28;44674;-66
2022/05/06 03:15:50;;;;;;;2.45;2.00;;;22.40;49.40;;;;;;4889867;28;44945;-66
2022/05/06 03:18:16;;;;;;;2.55;2.35;;;22.40;49.40;;;;;;4906824;28;48258;-66
2022/05/06 03:20:43;;;;;;;2.58;2.38;;;22.40;49.30;;;;;;4901300;28;45212;-66
2022/05/06 03:23:08;;;;;;;2.35;2.15;;;22.30;49.30;;;;;;4917068;28;45184;-66
2022/05/06 03:25:34;;;;;;;2.63;2.28;;;22.30;49.30;;;;;;4904811;28;45056;-66
2022/05/06 03:28:01;;;;;;;2.10;1.90;;;22.40;49.40;;;;;;4886998;28;48320;-66
2022/05/06 03:30:28;;;;;;;2.50;2.30;;;22.30;49.30;;;;;;4885575;28;45367;-66
2022/05/06 03:32:56;;;;;;;2.10;1.90;;;22.40;49.30;;;;;;4923074;28;44750;-66
2022/05/06 03:35:22;;;;;;;1.98;1.88;;;22.30;49.30;;;;;;4901516;28;45138;-66
2022/05/06 03:37:47;;;;;;;2.20;2.00;;;22.30;49.40;;;;;;4913628;28;46267;-66
2022/05/06 03:40:13;;;;;;;2.05;1.88;;;22.30;49.30;;;;;;4915928;28;45244;-66
2022/05/06 03:42:39;;;;;;;2.17;1.98;;;22.30;49.30;;;;;;4898283;28;44871;-66
2022/05/06 03:45:06;;;;;;;2.08;1.88;;;22.30;49.30;;;;;;4894835;28;45457;-66
2022/05/06 03:47:32;;;;;;;1.92;1.83;;;22.30;49.30;;;;;;4883401;28;45683;-66
2022/05/06 03:52:41;;;;;;;2.50;2.30;;;22.30;49.30;;;;;;4918863;28;45579;-66
2022/05/06 03:55:07;;;;;;;2.22;2.03;;;22.30;49.40;;;;;;4900382;28;45303;-66
2022/05/06 03:57:33;;;;;;;2.28;2.08;;;22.30;49.40;;;;;;4906705;28;45829;-66
2022/05/06 03:59:59;;;;;;;2.33;2.00;;;22.30;49.40;;;;;;4911589;28;45365;-66
2022/05/06 04:02:24;;;;;;;1.85;1.75;;;22.30;49.30;;;;;;4908976;28;45202;-66
2022/05/06 04:04:50;;;;;;;2.35;2.15;;;22.30;49.40;;;;;;4915237;28;45398;-66
2022/05/06 04:07:15;;;;;;;3.08;1.88;;;22.30;49.40;;;;;;4901152;28;45431;-66
2022/05/06 04:09:41;;;;;;;2.17;1.98;;;22.30;49.30;;;;;;4911184;28;44996;-66
2022/05/06 04:12:09;;;;;;;2.47;1.95;;;22.30;49.30;;;;;;4912353;28;45137;-66
2022/05/06 04:14:35;;;;;;;1.80;1.70;;;22.30;49.30;;;;;;4893438;28;46290;-66
2022/05/06 04:17:03;;;;;;;2.15;1.95;;;22.30;49.30;;;;;;4899487;28;45538;-66
2022/05/06 04:19:29;;;;;;;2.22;2.03;;;22.30;49.40;;;;;;4905068;28;45301;-66
2022/05/06 04:24:39;;;;;;;1.90;1.75;;;22.30;49.30;;;;;;4919796;28;45102;-66
2022/05/06 04:27:08;;;;;;;4.35;2.33;;;22.30;49.30;;;;;;4917741;28;45241;-66
2022/05/06 04:29:34;;;;;;;2.17;1.95;;;22.30;49.30;;;;;;4900923;28;45198;-66
2022/05/06 04:32:00;;;;;;;2.95;2.00;;;22.30;49.30;;;;;;4922127;28;46277;-66
2022/05/06 04:34:25;;;;;;;1.98;1.80;;;22.30;49.40;;;;;;4935599;28;44981;-66
2022/05/06 04:36:51;;;;;;;2.08;1.95;;;22.20;49.40;;;;;;4917064;28;45271;-66
2022/05/06 04:39:16;;;;;;;2.17;1.98;;;22.20;49.40;;;;;;4920645;28;45154;-66
2022/05/06 04:41:43;;;;;;;2.42;2.00;;;22.20;49.40;;;;;;4922050;28;45596;-66
2022/05/06 04:44:09;;;;;;;3.38;2.00;;;22.20;49.40;;;;;;4889775;28;44930;-66
2022/05/06 04:46:34;;;;;;;1.73;1.63;;;22.20;49.40;;;;;;4914407;28;45951;-66
2022/05/06 04:49:00;;;;;;;2.30;2.08;;;22.20;49.30;;;;;;4919476;28;45085;-66
2022/05/06 04:51:26;;;;;;;2.20;2.00;;;22.20;49.40;;;;;;4903985;28;44978;-66
2022/05/06 04:53:54;;;;;;;2.22;2.03;;;22.20;49.30;;;;;;4922174;28;44742;-66
2022/05/06 04:56:23;;;;;;;1.70;1.60;;;22.20;49.30;;;;;;4903973;28;47561;-66
2022/05/06 04:58:49;;;;;;;1.60;1.50;;;22.20;49.30;;;;;;4934858;28;44761;-66
2022/05/06 05:01:14;;;;;;;1.85;1.70;;;22.20;49.30;;;;;;4904913;28;44715;-66
2022/05/06 05:03:40;;;;;;;1.80;1.70;;;22.20;49.30;;;;;;4899753;28;45419;-65
2022/05/06 05:06:07;;;;;;;2.00;1.80;;;22.20;49.30;;;;;;4921244;28;45446;-66
2022/05/06 05:08:33;;;;;;;2.72;1.98;;;22.20;49.30;;;;;;4903057;28;45342;-66
2022/05/06 05:11:02;;;;;;;2.17;1.73;;;22.20;49.30;;;;;;4905649;28;45641;-66
2022/05/06 05:13:32;;;;;;;2.35;2.00;;;22.20;49.40;;;;;;4901713;28;45422;-66
2022/05/06 05:15:59;;;;;;;1.90;1.77;;;22.20;49.30;;;;;;4930195;28;45234;-66
2022/05/06 05:18:25;;;;;;;2.17;1.95;;;22.20;49.40;;;;;;4917699;28;45123;-67
2022/05/06 05:20:51;;;;;;;2.15;1.95;;;22.20;49.40;;;;;;4918388;28;45216;-66
2022/05/06 05:23:16;;;;;;;2.15;1.95;;;22.20;49.40;;;;;;4926321;28;45449;-66
2022/05/06 05:25:42;;;;;;;2.63;2.08;;;22.20;49.40;;;;;;4934747;28;45602;-66
2022/05/06 05:28:08;;;;;;;2.20;2.00;;;22.20;49.40;;;;;;4922150;28;45274;-66
2022/05/06 05:30:35;;;;;;;1.50;1.40;;;22.20;49.40;;;;;;4917117;28;45227;-66
2022/05/06 05:33:01;;;;;;;2.20;1.92;;;22.20;49.30;;;;;;4907979;28;45676;-66
2022/05/06 05:35:27;;;;;;;1.90;1.80;;;22.20;49.30;;;;;;4921745;28;45567;-66
2022/05/06 05:37:52;;;;;;;1.95;1.60;;;22.20;49.40;;;;;;4899450;28;45131;-66
2022/05/06 05:40:18;;;;;;;1.63;1.50;;;22.10;49.30;;;;;;4905126;28;45589;-66
2022/05/06 05:42:44;;;;;;;2.20;2.00;;;22.20;49.40;;;;;;4921381;28;45968;-66
2022/05/06 05:50:38;;;;;;;1.90;1.70;;;22.20;49.40;;;;;;4935024;28;44708;-66
2022/05/06 05:53:05;;;;;;;1.95;1.80;;;22.20;49.40;;;;;;4919656;28;45014;-66
2022/05/06 05:55:31;;;;;;;1.75;1.65;;;22.20;49.40;;;;;;4905013;28;45304;-66
2022/05/06 05:57:56;;;;;;;4.30;1.83;;;22.20;49.30;;;;;;4933531;28;45265;-66
2022/05/06 06:00:22;;;;;;;2.10;1.90;;;22.20;49.30;;;;;;4919480;28;45876;-67
2022/05/06 06:02:48;;;;;;;2.83;1.88;;;22.20;49.30;;;;;;4902828;28;46065;-67
2022/05/06 06:05:13;;;;;;;1.92;1.70;;;22.20;49.30;;;;;;4918415;28;45257;-67
2022/05/06 06:07:39;;;;;;;2.00;1.80;;;22.20;49.20;;;;;;4913309;28;45073;-66
2022/05/06 06:10:05;;;;;;;1.85;1.67;;;22.20;49.20;;;;;;4888961;28;45195;-67
2022/05/06 06:12:30;;;;;;;1.70;1.60;;;22.20;49.20;;;;;;4933367;28;45414;-66
2022/05/06 06:14:56;;;;;;;2.25;2.05;;;22.30;49.10;;;;;;4905268;28;47058;-67
2022/05/06 06:17:22;;;;;;;1.67;1.38;;;22.30;49.00;;;;;;4920156;28;45154;-67
2022/05/06 06:19:48;;;;;;;2.10;1.85;;;22.30;49.00;;;;;;4918530;28;45348;-67
2022/05/06 06:22:14;;;;;;;1.60;1.50;;;22.30;49.00;;;;;;4904752;28;45666;-67
2022/05/06 06:24:39;;;;;;;1.58;1.42;;;22.40;49.10;;;;;;4899674;28;46406;-67
2022/05/06 06:27:05;;;;;;;1.98;1.83;;;22.40;49.10;;;;;;4913487;28;45464;-67
2022/05/06 06:29:35;;;;;;;1.70;1.60;;;22.40;49.10;;;;;;4917234;28;45128;-67
2022/05/06 06:32:01;;;;;;;1.80;1.70;;;22.40;49.10;;;;;;4900143;28;45542;-67
2022/05/06 06:34:27;;;;;;;1.70;1.60;;;22.40;49.10;;;;;;4920468;28;46638;-66
2022/05/06 06:36:52;;;;;;;1.80;1.70;;;22.40;49.20;;;;;;4912384;28;45265;-66
2022/05/06 06:39:18;;;;;;;1.90;1.70;;;22.40;49.20;;;;;;4921309;28;45118;-65
2022/05/06 06:41:44;;;;;;;2.13;1.65;;;22.40;49.20;;;;;;4920489;28;44959;-66
2022/05/06 06:44:09;;;;;;;2.13;1.60;;;22.40;49.20;;;;;;4880761;28;47261;-66
2022/05/06 06:46:35;;;;;;;2.15;1.55;;;22.40;49.20;;;;;;4913847;28;45249;-66
2022/05/06 06:49:01;;;;;;;1.67;1.52;;;22.40;49.20;;;;;;4893311;28;45578;-66
2022/05/06 06:51:27;;;;;;;1.38;1.27;;;22.40;49.20;;;;;;4926658;28;44963;-65
2022/05/06 06:53:55;;;;;;;1.40;1.30;;;22.50;49.20;;;;;;4905368;28;45923;-66
2022/05/06 06:56:21;;;;;;;1.42;1.33;;;22.40;49.20;;;;;;4900997;28;44772;-65
2022/05/06 06:58:47;;;;;;;2.30;1.70;;;22.40;49.20;;;;;;4893803;28;44929;-68
2022/05/06 07:01:13;;;;;;;1.52;1.42;;;22.50;49.30;;;;;;4886213;28;45382;-67
2022/05/06 07:03:39;;;;;;;1.80;1.60;;;22.50;49.20;;;;;;4938036;28;45411;-66
2022/05/06 07:14:16;;;;;;;2.35;1.40;;;22.50;49.10;;;;;;4919880;28;45243;-66
2022/05/06 07:16:42;;;;;;;1.60;1.48;;;22.50;49.10;;;;;;4907860;28;46243;-67
2022/05/06 07:19:07;;;;;;;1.70;1.60;;;22.50;49.00;;;;;;4895283;28;45126;-66
2022/05/06 07:21:33;;;;;;;2.13;1.55;;;22.50;49.00;;;;;;4910591;28;45731;-66
2022/05/06 07:23:59;;;;;;;2.22;1.35;;;22.50;49.00;;;;;;4911183;28;45727;-67
2022/05/06 07:26:25;;;;;;;1.63;1.40;;;22.60;49.10;;;;;;4895758;28;45296;-66
2022/05/06 07:28:51;;;;;;;1.60;1.50;;;22.60;49.10;;;;;;4930683;28;45317;-66
2022/05/06 07:31:16;;;;;;;2.22;1.77;;;22.60;49.10;;;;;;4934739;28;44816;-66
2022/05/06 07:33:42;;;;;;;2.03;1.83;;;22.60;49.10;;;;;;4911846;28;46121;-65
2022/05/06 07:36:08;;;;;;;1.48;1.27;;;22.60;49.00;;;;;;4914427;28;45213;-65
2022/05/06 07:38:33;;;;;;;1.70;1.48;;;22.60;49.00;;;;;;4912121;28;45268;-66
2022/05/06 07:41:03;;;;;;;1.23;1.13;;;22.70;49.10;;;;;;4913429;28;44770;-65
2022/05/06 07:43:29;;;;;;;1.67;1.58;;;22.70;49.00;;;;;;4899217;28;45317;-65
2022/05/06 07:45:55;;;;;;;1.60;1.45;;;22.70;49.00;;;;;;4909389;28;44818;-66
2022/05/06 07:48:20;;;;;;;1.48;1.38;;;22.70;49.00;;;;;;4918205;28;45294;-65
2022/05/06 07:50:46;;;;;;;1.83;1.45;;;22.70;49.00;;;;;;4909554;28;45216;-66
2022/05/06 07:53:12;;;;;;;2.13;1.50;;;22.70;49.00;;;;;;4916564;28;45354;-65
2022/05/06 07:55:38;;;;;;;1.40;1.30;;;22.70;48.90;;;;;;4915491;28;45198;-62
2022/05/06 07:58:07;;;;;;;1.33;1.23;;;22.70;48.90;;;;;;4929514;28;45267;-65
2022/05/06 08:00:33;;;;;;;2.05;1.52;;;22.70;48.90;;;;;;4918063;28;45151;-65
2022/05/06 08:05:44;;;;;;;1.73;1.27;;;22.80;48.90;;;;;;4935788;28;45206;-68
2022/05/06 08:08:09;;;;;;;1.42;1.33;;;22.80;48.90;;;;;;4915803;28;45288;-66
2022/05/06 08:10:35;;;;;;;2.28;1.50;;;22.80;48.90;;;;;;4906686;28;45460;-67
2022/05/06 08:13:01;;;;;;;2.40;1.30;;;22.80;48.90;;;;;;4936894;28;45316;-67
2022/05/06 08:15:27;;;;;;;1.33;1.23;;;22.80;48.90;;;;;;4920689;28;45368;-65
2022/05/06 08:17:53;;;;;;;1.40;1.30;;;22.80;48.90;;;;;;4898949;28;45281;-65
2022/05/06 08:20:18;;;;;;;2.63;1.30;;;22.80;48.90;;;;;;4918693;28;45429;-65
2022/05/06 08:22:44;;;;;;;1.40;1.30;;;22.80;48.90;;;;;;4919652;28;45547;-65
2022/05/06 08:25:10;;;;;;;2.05;1.48;;;22.80;48.90;;;;;;4921017;28;44894;-67
2022/05/06 08:27:37;;;;;;;1.33;1.23;;;22.80;48.90;;;;;;4902153;28;45283;-66
2022/05/06 08:30:04;;;;;;;1.42;1.20;;;22.90;49.00;;;;;;4942141;28;45233;-64
2022/05/06 08:32:30;;;;;;;1.35;1.25;;;22.90;49.00;;;;;;4904251;28;45915;-66
2022/05/06 08:34:55;;;;;;;1.60;1.30;;;22.90;49.00;;;;;;4940473;28;44595;-66
2022/05/06 08:37:21;;;;;;;1.33;1.23;;;22.90;49.00;;;;;;4922923;28;45553;-66
2022/05/06 08:39:47;;;;;;;1.30;1.15;;;22.90;48.90;;;;;;4919084;28;44719;-65
2022/05/06 08:42:17;;;;;;;1.55;1.45;;;22.90;48.90;;;;;;4906554;28;45400;-67
2022/05/06 08:52:54;;;;;;;1.35;1.25;;;23.00;48.90;;;;;;4906298;28;45152;-67
2022/05/06 08:55:20;;;;;;;1.50;1.40;;;23.00;48.90;;;;;;4907089;28;44666;-67
2022/05/06 08:57:46;;;;;;;1.60;1.40;;;23.00;48.90;;;;;;4918721;28;45428;-66
2022/05/06 09:00:12;;;;;;;2.67;1.48;;;23.00;48.90;;;;;;4922291;28;45374;-67
2022/05/06 09:02:39;;;;;;;1.35;1.25;;;23.00;48.90;;;;;;4916621;28;45497;-66
2022/05/06 09:05:18;;;;;;;1.48;1.35;;;23.00;48.90;;;;;;4908916;28;45168;-67
2022/05/06 09:08:02;;;;;;;1.63;1.35;;;23.10;48.90;;;;;;4903500;28;45295;-66
2022/05/06 09:10:28;;;;;;;1.77;1.30;;;23.00;48.90;;;;;;4896280;28;45280;-68
2022/05/06 09:13:00;;;;;;;1.35;1.25;;;23.00;48.90;;;;;;4899848;28;46578;-68
2022/05/06 09:18:24;;;;;;;1.20;0.98;;;23.00;48.90;;;;;;4880646;28;45533;-67
2022/05/06 09:20:50;;;;;;;3.17;1.40;;;23.00;49.00;;;;;;4923543;28;45163;-67
2022/05/06 09:23:24;;;;;;;1.23;1.13;;;23.00;49.00;;;;;;4923471;28;46356;-67
2022/05/06 09:25:51;;;;;;;1.17;1.08;;;23.00;48.90;;;;;;4934762;28;45145;-66
2022/05/06 09:28:29;;;;;;;1.30;1.20;;;23.10;49.00;;;;;;4927475;28;45007;-67
2022/05/06 09:31:05;;;;;;;2.28;1.20;;;23.10;48.90;;;;;;4937351;28;45215;-68
2022/05/06 09:33:40;;;;;;;1.08;1.08;;;23.10;48.90;;;;;;4904166;28;48091;-67
2022/05/06 09:36:26;;;;;;;1.35;1.25;;;23.10;48.90;;;;;;4911068;28;45216;-67
2022/05/06 09:39:07;;;;;;;1.55;1.20;;;23.10;48.80;;;;;;4921009;28;45239;-66
2022/05/06 09:41:32;;;;;;;2.05;1.30;;;23.10;48.80;;;;;;4934034;28;45149;-64
2022/05/06 09:44:05;;;;;;;1.30;1.20;;;23.10;49.40;;;;;;4922345;28;45661;-66
2022/05/06 09:46:31;;;;;;;1.45;1.35;;;23.20;48.90;;;;;;4922269;28;45310;-66
2022/05/06 09:49:02;;;;;;;1.40;1.30;;;23.10;48.90;;;;;;4915812;28;45246;-65
2022/05/06 09:51:33;;;;;;;1.20;1.10;;;23.10;48.90;;;;;;4883204;28;45097;-65
2022/05/06 09:53:59;;;;;;;1.08;1.00;;;23.20;48.90;;;;;;4913945;28;45201;-66
2022/05/06 09:56:25;;;;;;;1.20;1.10;;;23.20;48.80;;;;;;4916457;28;45288;-66
2022/05/06 09:58:51;;;;;;;1.33;1.13;;;23.20;48.90;;;;;;4920554;28;45381;-67
2022/05/06 10:01:17;;;;;;;1.08;1.05;;;23.20;48.90;;;;;;4916639;28;45569;-66
2022/05/06 10:03:43;;;;;;;1.20;1.10;;;23.20;48.90;;;;;;4928544;28;45375;-66
2022/05/06 10:06:09;;;;;;;1.33;1.23;;;23.20;48.90;;;;;;4911603;28;45263;-66
2022/05/06 10:08:35;;;;;;;1.30;1.20;;;23.20;48.90;;;;;;4930195;28;45437;-66
2022/05/06 10:11:01;;;;;;;1.30;1.20;;;23.20;48.90;;;;;;4899378;28;46381;-66
2022/05/06 10:13:30;;;;;;;1.95;1.15;;;23.30;48.90;;;;;;4903083;28;45779;-66
2022/05/06 10:15:55;;;;;;;1.55;1.27;;;23.30;48.90;;;;;;4914771;28;45314;-66
2022/05/06 10:18:37;;;;;;;1.35;1.25;;;23.30;48.80;;;;;;4888100;28;45298;-66
2022/05/06 10:21:09;;;;;;;1.23;1.13;;;23.30;48.80;;;;;;4916439;28;45241;-66
2022/05/06 10:23:51;;;;;;;1.15;1.10;;;23.30;48.80;;;;;;4867248;28;47572;-66
2022/05/06 10:26:41;;;;;;;1.08;0.80;;;23.30;49.40;;;;;;4924601;28;45920;-66
2022/05/06 10:35:04;;;;;;;1.85;1.20;;;23.30;48.70;;;;;;4921290;28;45542;-66
2022/05/06 10:37:43;;;;;;;1.13;1.02;;;23.30;48.70;;;;;;4934442;28;45413;-66
2022/05/06 10:40:48;;;;;;;1.10;1.02;;;23.30;48.60;;;;;;4909229;28;45353;-66
2022/05/06 10:43:39;;;;;;;1.33;1.17;;;23.40;48.60;;;;;;4900258;28;45100;-66
2022/05/06 10:46:05;;;;;;;2.78;1.20;;;23.40;48.60;;;;;;4921273;28;45273;-66
2022/05/06 10:48:30;;;;;;;1.27;1.10;;;23.30;48.60;;;;;;4902559;28;44670;-66
2022/05/06 10:51:18;;;;;;;1.10;1.00;;;23.30;48.60;;;;;;4917882;28;44861;-66
2022/05/06 10:53:43;;;;;;;0.90;0.90;;;23.40;48.60;;;;;;4918681;28;45402;-66
2022/05/06 10:56:09;;;;;;;0.95;0.82;;;23.30;48.60;;;;;;4903995;28;45477;-66
2022/05/06 10:58:35;;;;;;;1.50;1.30;;;23.40;48.70;;;;;;4932418;28;45528;-68
2022/05/06 11:01:00;;;;;;;1.38;1.20;;;23.40;48.60;;;;;;4915843;28;45430;-67
2022/05/06 11:03:26;;;;;;;1.92;1.10;;;23.40;48.60;;;;;;4910591;28;45390;-67
2022/05/06 11:05:52;;;;;;;3.40;1.15;;;23.40;48.50;;;;;;4920708;28;46099;-67
2022/05/06 11:08:21;;;;;;;1.17;1.08;;;23.40;48.50;;;;;;4913094;28;45382;-68
2022/05/06 11:10:47;;;;;;;1.05;0.98;;;23.50;48.50;;;;;;4912116;28;45122;-68
2022/05/06 11:13:13;;;;;;;3.15;1.10;;;23.50;48.50;;;;;;4914635;28;45329;-68
2022/05/06 11:15:39;;;;;;;1.52;1.20;;;23.50;48.40;;;;;;4916376;28;46467;-68
2022/05/06 11:18:05;;;;;;;1.08;0.98;;;23.50;48.40;;;;;;4915592;28;45268;-68
2022/05/06 11:20:33;;;;;;;1.30;1.15;;;23.50;48.40;;;;;;4913837;28;45384;-68
2022/05/06 11:23:03;;;;;;;1.48;1.38;;;23.50;48.40;;;;;;4896387;28;44725;-68
2022/05/06 11:25:33;;;;;;;1.02;1.00;;;23.50;48.40;;;;;;4915869;28;46675;-68
2022/05/06 11:28:00;;;;;;;1.17;1.08;;;23.50;48.40;;;;;;4916604;28;45111;-68
2022/05/06 11:30:27;;;;;;;1.50;1.40;;;23.50;48.30;;;;;;4913785;28;45302;-67
2022/05/06 11:32:53;;;;;;;1.10;1.05;;;23.50;48.40;;;;;;4916518;28;45456;-68
2022/05/06 11:35:21;;;;;;;1.20;1.10;;;23.60;48.40;;;;;;4922643;28;45342;-67
2022/05/06 11:37:47;;;;;;;1.10;1.00;;;23.60;48.40;;;;;;4919548;28;45135;-67
2022/05/06 11:42:55;;;;;;;1.00;0.90;;;23.60;48.30;;;;;;4895956;28;44657;-67
2022/05/06 11:48:05;;;;;;;1.75;1.00;;;23.60;48.40;;;;;;4919147;28;45216;-65
2022/05/06 11:50:34;;;;;;;1.10;1.00;;;23.60;48.30;;;;;;4913408;28;44719;-66
2022/05/06 11:53:01;;;;;;;2.00;0.95;;;23.60;48.30;;;;;;4895821;28;45411;-66
2022/05/06 11:55:28;;;;;;;1.10;1.00;;;23.70;48.30;;;;;;4918013;28;45212;-67
2022/05/06 11:57:53;;;;;;;1.20;1.10;;;23.70;48.30;;;;;;4913970;28;45216;-66
2022/05/06 12:00:19;;;;;;;1.45;1.02;;;23.70;48.30;;;;;;4913200;28;45474;-66
2022/05/06 12:02:48;;;;;;;1.30;1.20;;;23.70;48.30;;;;;;4917567;28;45378;-67
2022/05/06 12:05:14;;;;;;;1.05;1.02;;;23.70;48.20;;;;;;4919826;28;46813;-67
2022/05/06 12:07:49;;;;;;;1.25;1.15;;;23.70;48.20;;;;;;4890201;28;44997;-66
2022/05/06 12:10:32;;;;;;;1.05;0.98;;;23.70;48.30;;;;;;4915631;28;44930;-65
2022/05/06 12:12:58;;;;;;;3.95;1.33;;;23.70;48.20;;;;;;4904421;28;44995;-67
2022/05/06 12:15:37;;;;;;;1.38;0.88;;;23.70;48.30;;;;;;4937331;28;46124;-68
2022/05/06 12:18:25;;;;;;;1.85;1.00;;;23.80;48.20;;;;;;4906002;28;45169;-63
2022/05/06 12:20:51;;;;;;;1.20;1.10;;;23.80;48.30;;;;;;4917938;28;44967;-67
2022/05/06 12:23:30;;;;;;;2.30;1.25;;;23.70;48.30;;;;;;4934963;28;45289;-66
2022/05/06 12:25:55;;;;;;;1.13;0.98;;;23.80;48.30;;;;;;4926703;28;45815;-67
2022/05/06 12:28:21;;;;;;;1.52;1.20;;;23.80;48.20;;;;;;4904252;28;44808;-66
2022/05/06 12:30:54;;;;;;;1.45;1.00;;;23.80;48.20;;;;;;4938872;28;45174;-67
2022/05/06 12:33:19;;;;;;;1.45;1.10;;;23.80;48.20;;;;;;4920975;28;45281;-67
2022/05/06 12:36:01;;;;;;;0.90;0.90;;;23.80;48.20;;;;;;4907664;28;45264;-66
2022/05/06 12:38:39;;;;;;;1.05;0.98;;;23.80;48.10;;;;;;4918460;28;45152;-67
2022/05/06 12:41:25;;;;;;;1.25;1.15;;;23.80;48.20;;;;;;4930834;28;45210;-66
2022/05/06 12:43:51;;;;;;;0.90;0.90;;;23.80;48.10;;;;;;4887418;28;45008;-66
2022/05/06 12:46:27;;;;;;;1.20;1.10;;;23.80;48.20;;;;;;4923648;28;45675;-67
2022/05/06 12:51:42;;;;;;;1.02;1.02;;;23.90;48.20;;;;;;4913200;28;45075;-66
2022/05/06 12:54:08;;;;;;;2.40;1.40;;;23.90;48.30;;;;;;4919778;28;44994;-66
2022/05/06 12:56:34;;;;;;;2.08;0.95;;;23.90;48.20;;;;;;4925022;28;45645;-66
2022/05/06 12:58:59;;;;;;;1.30;1.20;;;23.90;48.30;;;;;;4901029;28;45306;-65
2022/05/06 13:01:25;;;;;;;1.20;1.10;;;23.90;48.20;;;;;;4916658;28;45427;-66
2022/05/06 13:03:51;;;;;;;1.20;1.10;;;23.90;48.30;;;;;;4916565;28;45178;-66
2022/05/06 13:06:16;;;;;;;1.38;1.10;;;23.90;48.20;;;;;;4929642;28;45016;-65
2022/05/06 13:08:42;;;;;;;1.10;0.82;;;23.90;48.20;;;;;;4904691;28;45080;-66
2022/05/06 13:11:07;;;;;;;1.00;0.90;;;23.90;48.30;;;;;;4890625;28;45142;-65
2022/05/06 13:13:33;;;;;;;1.15;0.82;;;23.90;48.30;;;;;;4918331;28;45316;-66
2022/05/06 13:15:59;;;;;;;1.52;1.25;;;23.90;48.30;;;;;;4941442;28;45193;-65
2022/05/06 13:18:28;;;;;;;1.17;1.08;;;23.90;48.30;;;;;;4924772;28;45337;-67
2022/05/06 13:20:53;;;;;;;1.00;0.85;;;24.00;48.30;;;;;;4918167;28;45567;-67
2022/05/06 13:23:19;;;;;;;1.30;1.20;;;24.00;48.40;;;;;;4918593;28;45388;-67
2022/05/06 13:25:45;;;;;;;1.13;1.10;;;24.00;48.30;;;;;;4922079;28;46376;-67
2022/05/06 13:28:12;;;;;;;1.05;0.93;;;24.00;48.40;;;;;;4925304;28;45136;-67
2022/05/06 13:30:37;;;;;;;2.55;1.10;;;24.00;48.40;;;;;;4904948;28;45236;-67
2022/05/06 13:33:03;;;;;;;1.15;1.02;;;24.00;48.40;;;;;;4916041;28;44731;-67
2022/05/06 13:35:28;;;;;;;1.13;1.08;;;24.00;48.40;;;;;;4901429;28;46581;-67
2022/05/06 13:37:57;;;;;;;1.98;1.30;;;24.00;48.40;;;;;;4919730;28;45749;-66
2022/05/06 13:40:24;;;;;;;0.90;0.90;;;24.00;48.40;;;;;;4887806;28;45432;-66
2022/05/06 13:42:49;;;;;;;2.38;1.10;;;24.00;48.50;;;;;;4923562;28;45499;-66
2022/05/06 13:45:15;;;;;;;3.75;1.10;;;24.00;48.50;;;;;;4899083;28;47032;-65
2022/05/06 13:47:40;;;;;;;1.35;1.10;;;24.00;48.50;;;;;;4911158;28;45149;-66
2022/05/06 13:50:07;;;;;;;1.10;1.00;;;24.00;48.50;;;;;;4905956;28;45560;-66
2022/05/06 13:52:33;;;;;;;1.10;1.00;;;24.00;48.40;;;;;;4914359;28;45322;-66
2022/05/06 13:55:03;;;;;;;1.30;1.10;;;24.00;48.50;;;;;;4896998;28;46877;-66
2022/05/06 14:00:16;;;;;;;1.10;0.90;;;24.00;48.60;;;;;;4919381;28;45126;-66
2022/05/06 14:02:42;;;;;;;1.25;0.98;;;24.00;48.60;;;;;;4927899;28;44702;-66
2022/05/06 14:05:10;;;;;;;1.10;1.00;;;24.00;48.60;;;;;;4904273;28;45496;-65
2022/05/06 14:07:36;;;;;;;1.20;1.10;;;24.00;48.60;;;;;;4874996;28;44723;-65
2022/05/06 14:10:03;;;;;;;1.20;1.00;;;24.00;48.60;;;;;;4917368;28;45203;-66
2022/05/06 14:12:31;;;;;;;0.98;0.88;;;23.90;48.60;;;;;;4915865;28;45172;-66
2022/05/06 14:14:57;;;;;;;1.13;1.02;;;23.90;48.60;;;;;;4902339;28;45460;-67
2022/05/06 14:17:23;;;;;;;1.48;1.00;;;23.90;48.60;;;;;;4924197;28;44676;-66
2022/05/06 14:19:48;;;;;;;1.27;1.17;;;23.90;48.60;;;;;;4917573;28;44840;-66
2022/05/06 14:22:14;;;;;;;0.90;0.90;;;23.90;48.60;;;;;;4915708;28;45130;-65
2022/05/06 14:24:42;;;;;;;1.27;1.17;;;23.90;48.70;;;;;;4919364;28;47914;-66
2022/05/06 14:27:07;;;;;;;0.80;0.77;;;23.90;48.70;;;;;;4914378;28;45189;-66
2022/05/06 14:29:34;;;;;;;0.80;0.80;;;23.90;48.70;;;;;;4889108;28;45441;-66
2022/05/06 14:32:00;;;;;;;1.40;1.05;;;23.90;48.70;;;;;;4903461;28;45415;-66
2022/05/06 14:34:26;;;;;;;1.10;1.00;;;23.90;48.70;;;;;;4893405;28;46816;-66
2022/05/06 14:36:51;;;;;;;1.20;1.00;;;23.90;48.70;;;;;;4917322;28;44979;-65
2022/05/06 14:39:17;;;;;;;1.00;1.00;;;23.90;48.70;;;;;;4933576;28;45313;-65
2022/05/06 14:41:43;;;;;;;1.23;0.98;;;23.90;48.70;;;;;;4873786;28;45064;-66
2022/05/06 14:44:09;;;;;;;1.10;1.00;;;23.90;48.70;;;;;;4920514;28;45267;-65
2022/05/06 14:46:34;;;;;;;1.58;1.20;;;23.90;49.30;;;;;;4916904;28;44656;-66
2022/05/06 14:49:00;;;;;;;0.88;0.88;;;23.80;48.60;;;;;;4923395;28;44910;-65
2022/05/06 14:51:26;;;;;;;1.10;1.00;;;23.90;48.70;;;;;;4918677;28;45363;-66
2022/05/06 14:53:52;;;;;;;0.90;0.90;;;23.90;48.70;;;;;;4917775;28;45195;-66
2022/05/06 14:56:19;;;;;;;1.20;1.10;;;23.90;48.70;;;;;;4899925;28;45315;-65
2022/05/06 14:58:44;;;;;;;1.75;1.00;;;23.80;48.70;;;;;;4914844;28;44763;-65
2022/05/06 15:01:10;;;;;;;1.00;1.00;;;23.90;48.70;;;;;;4924096;28;45286;-66
2022/05/06 15:03:36;;;;;;;1.00;1.00;;;23.90;48.70;;;;;;4900456;28;45190;-66
2022/05/06 15:06:02;;;;;;;1.20;0.82;;;23.80;48.70;;;;;;4897347;28;44749;-65
2022/05/06 15:08:28;;;;;;;0.90;0.90;;;23.80;48.70;;;;;;4903295;28;44899;-66
2022/05/06 15:10:54;;;;;;;1.25;0.90;;;23.80;48.70;;;;;;4891338;28;45185;-66
2022/05/06 15:13:19;;;;;;;1.27;1.02;;;23.80;48.70;;;;;;4916682;28;45736;-66
2022/05/06 15:15:45;;;;;;;1.20;1.10;;;23.80;48.70;;;;;;4898868;28;45242;-66
2022/05/06 15:20:55;;;;;;;1.20;1.00;;;23.80;49.00;;;;;;4899902;28;45603;-66
2022/05/06 15:23:20;;;;;;;1.23;1.13;;;23.80;48.80;;;;;;4913066;28;47013;-65
2022/05/06 15:25:46;;;;;;;0.93;0.93;;;23.80;48.80;;;;;;4899680;28;45673;-66
2022/05/06 15:28:12;;;;;;;1.27;1.00;;;23.80;48.80;;;;;;4928353;28;45355;-65
2022/05/06 15:30:40;;;;;;;1.20;1.05;;;23.80;48.70;;;;;;4911373;28;44967;-66
2022/05/06 15:33:06;;;;;;;1.42;1.33;;;23.80;48.80;;;;;;4912276;28;46136;-64
2022/05/06 15:35:32;;;;;;;0.98;0.93;;;23.80;48.70;;;;;;4921136;28;47068;-65
2022/05/06 15:37:57;;;;;;;1.63;1.02;;;23.80;48.70;;;;;;4893850;28;45251;-66
2022/05/06 15:40:23;;;;;;;0.80;0.80;;;23.80;48.70;;;;;;4882691;28;45517;-66
2022/05/06 15:42:50;;;;;;;1.20;1.10;;;23.80;48.80;;;;;;4928920;28;45605;-66
2022/05/06 15:45:15;;;;;;;1.10;1.00;;;23.80;48.80;;;;;;4911695;28;45281;-66
2022/05/06 15:47:41;;;;;;;1.08;1.05;;;23.80;48.80;;;;;;4928867;28;45671;-66
2022/05/06 15:50:07;;;;;;;1.23;1.13;;;23.80;48.80;;;;;;4896173;28;45827;-66
2022/05/06 15:52:33;;;;;;;1.00;0.80;;;23.80;48.80;;;;;;4931052;28;46315;-66
2022/05/06 15:54:58;;;;;;;1.20;1.10;;;23.80;48.80;;;;;;4881675;28;46055;-67
2022/05/06 15:57:24;;;;;;;0.82;0.82;;;23.80;48.80;;;;;;4911875;28;45362;-65
2022/05/06 15:59:50;;;;;;;1.30;1.20;;;23.70;48.80;;;;;;4927985;28;45309;-66
2022/05/06 16:02:16;;;;;;;1.17;1.00;;;23.70;48.80;;;;;;4897305;28;45540;-66
2022/05/06 16:04:42;;;;;;;1.08;0.98;;;23.70;48.90;;;;;;4910079;28;45253;-67
2022/05/06 16:07:08;;;;;;;1.33;1.10;;;23.70;48.80;;;;;;4910694;28;45443;-67
2022/05/06 16:09:34;;;;;;;1.85;1.02;;;23.80;48.80;;;;;;4913149;28;45161;-67
2022/05/06 16:12:00;;;;;;;1.55;1.13;;;23.70;48.80;;;;;;4879542;28;47335;-67
2022/05/06 16:17:09;;;;;;;1.27;0.77;;;23.70;48.80;;;;;;4916888;28;45119;-66
2022/05/06 16:19:35;;;;;;;1.00;1.00;;;23.70;48.80;;;;;;4932066;28;45235;-66
2022/05/06 16:22:03;;;;;;;0.80;0.80;;;23.70;48.80;;;;;;4913599;28;46730;-66
2022/05/06 16:24:30;;;;;;;0.70;0.70;;;23.70;48.80;;;;;;4900653;28;45305;-66
2022/05/06 16:26:55;;;;;;;0.80;0.80;;;23.70;48.80;;;;;;4913472;28;45241;-67
2022/05/06 16:29:21;;;;;;;1.63;1.00;;;23.60;49.40;;;;;;4908352;28;45201;-65
2022/05/06 16:31:46;;;;;;;0.70;0.70;;;23.60;48.80;;;;;;4911579;28;45468;-65
2022/05/06 16:39:41;;;;;;;1.10;1.00;;;23.60;48.80;;;;;;4912783;28;44739;-65
2022/05/06 16:42:07;;;;;;;0.80;0.80;;;23.60;48.80;;;;;;4916244;28;45294;-66
2022/05/06 16:44:32;;;;;;;1.00;0.90;;;23.60;48.80;;;;;;4920666;28;45283;-67
2022/05/06 16:46:58;;;;;;;1.20;1.10;;;23.60;48.90;;;;;;4887444;28;44727;-67
2022/05/06 16:49:24;;;;;;;1.10;0.70;;;23.60;48.90;;;;;;4913134;28;45586;-67